Klazienaveen, Netherlands
Current Conditions -  °F | °C
As of 12:25 PM on Saturday 25 Oct 2014 (Local Time) from EHGG Reporting Station
Broken Clouds Broken Clouds  
Wind Chill: 57°   Ceiling: 4600
Heat Index: 57°   Visibility: 6mi
Dew Point: 54°   Wind: 9mph
Humidity: 88%   Direction: 230°SW
Pressure: 30.03"   Gusts: NA
Location:  52.72°N, 6.99°E
Report Text: EHGG 251025Z AUTO 23008KT 9999 FEW009 BKN046 14/12 Q1017 BECMGSCT015
Loading
Personal Weather Stations






























Interactive Weather Map
Tropical Storm Tracking
New forecast layout! Learn more

10-Day Weather Forecast

Advertisements
Track Severe Weather on mobile